createdAt,value
2019-02-21T00:00:24.197Z,33.73
2019-02-21T00:02:48.860Z,28.80
2019-02-21T00:05:17.330Z,35.77
2019-02-21T00:07:45.759Z,28.90
2019-02-21T00:10:14.175Z,30.10
2019-02-21T00:12:42.630Z,45.77
2019-02-21T00:15:30.393Z,35.70
2019-02-21T00:17:58.831Z,29.73
2019-02-21T00:20:27.253Z,31.40
2019-02-21T00:22:55.716Z,25.90
2019-02-21T00:25:24.202Z,32.47
2019-02-21T00:27:52.657Z,27.70
2019-02-21T00:30:21.070Z,34.87
2019-02-21T00:32:49.530Z,31.50
2019-02-21T00:35:17.951Z,33.60
2019-02-21T00:37:46.395Z,31.20
2019-02-21T00:40:23.504Z,32.90
2019-02-21T00:42:51.985Z,35.80
2019-02-21T00:45:39.998Z,26.67
2019-02-21T00:48:20.724Z,30.47
2019-02-21T00:50:49.144Z,38.53
2019-02-21T00:53:17.584Z,27.70
2019-02-21T00:56:05.347Z,26.33
2019-02-21T00:58:33.794Z,33.93
2019-02-21T01:01:21.565Z,31.20
2019-02-21T01:03:50.027Z,30.93
2019-02-21T01:06:37.799Z,36.57
2019-02-21T01:09:06.295Z,35.03
2019-02-21T01:11:34.750Z,29.33
2019-02-21T01:14:03.172Z,23.20
2019-02-21T01:16:31.618Z,31.23
2019-02-21T01:19:00.074Z,36.73
2019-02-21T01:21:28.551Z,23.13
2019-02-21T01:23:56.975Z,40.63
2019-02-21T01:26:38.093Z,33.23
2019-02-21T01:29:14.133Z,29.23
2019-02-21T01:32:02.005Z,31.50
2019-02-21T01:34:30.450Z,20.60
2019-02-21T01:37:18.311Z,35.50
2019-02-21T01:40:07.749Z,34.40
2019-02-21T01:42:36.701Z,37.00
2019-02-21T01:45:07.370Z,33.10
2019-02-21T01:47:35.852Z,30.20
2019-02-21T01:50:06.171Z,38.30
2019-02-21T01:52:34.755Z,34.70
2019-02-21T01:55:03.531Z,37.20
2019-02-21T01:57:51.351Z,32.30
2019-02-21T02:00:39.420Z,40.20
2019-02-21T02:03:20.229Z,22.93
2019-02-21T02:05:48.711Z,30.90
2019-02-21T02:08:17.228Z,33.93
2019-02-21T02:10:45.680Z,36.63
2019-02-21T02:13:24.170Z,43.93
2019-02-21T02:15:44.331Z,38.90
2019-02-21T02:18:32.106Z,34.40
2019-02-21T02:24:21.579Z,38.30
2019-02-21T02:27:02.784Z,38.47
2019-02-21T02:29:31.236Z,41.47
2019-02-21T02:32:11.502Z,36.17
2019-02-21T02:34:40.004Z,32.67
2019-02-21T02:37:08.442Z,45.00
2019-02-21T02:39:56.283Z,40.87
2019-02-21T02:42:44.074Z,39.53
2019-02-21T02:45:12.508Z,40.30
2019-02-21T02:48:00.312Z,41.77
2019-02-21T02:50:28.758Z,43.50
2019-02-21T02:52:57.247Z,37.70
2019-02-21T02:55:25.736Z,35.33
2019-02-21T02:57:54.158Z,42.80
2019-02-21T03:00:22.584Z,38.90
2019-02-21T03:02:51.043Z,45.20
2019-02-21T03:05:38.796Z,40.80
2019-02-21T03:08:07.236Z,39.60
2019-02-21T03:10:35.657Z,50.57
2019-02-21T03:13:04.097Z,49.47
2019-02-21T03:15:32.559Z,44.93
2019-02-21T03:18:01.140Z,54.40
2019-02-21T03:20:29.628Z,47.33
2019-02-21T03:22:58.062Z,58.37
2019-02-21T03:25:26.533Z,43.13
2019-02-21T03:27:55.004Z,41.97
2019-02-21T03:30:42.768Z,51.93
2019-02-21T03:33:11.212Z,43.80
2019-02-21T03:35:39.623Z,43.50
2019-02-21T03:38:08.081Z,44.30
2019-02-21T03:40:36.592Z,48.00
2019-02-21T03:43:17.094Z,49.80
2019-02-21T03:45:57.824Z,52.33
2019-02-21T03:48:26.360Z,47.03
2019-02-21T03:50:54.791Z,47.10
2019-02-21T03:53:23.315Z,53.93
2019-02-21T03:56:11.112Z,47.03
2019-02-21T03:58:51.776Z,44.30
2019-02-21T04:01:20.187Z,47.80
2019-02-21T04:03:48.811Z,49.97
2019-02-21T04:06:17.336Z,51.80
2019-02-21T04:09:06.653Z,66.83
2019-02-21T04:11:35.147Z,50.77
2019-02-21T04:14:23.174Z,48.60
2019-02-21T04:17:03.660Z,52.50
2019-02-21T04:19:44.432Z,44.43
2019-02-21T04:22:24.925Z,59.97
2019-02-21T04:24:53.369Z,51.80
2019-02-21T04:27:41.133Z,53.20
2019-02-21T04:30:09.583Z,60.87
2019-02-21T04:32:38.108Z,61.20
2019-02-21T04:35:06.819Z,54.23
2019-02-21T04:37:35.228Z,55.47
2019-02-21T04:40:23.008Z,67.03
2019-02-21T04:42:51.457Z,56.97
2019-02-21T04:45:19.976Z,57.97
2019-02-21T04:47:48.413Z,54.70
2019-02-21T04:50:16.832Z,62.10
2019-02-21T04:53:04.689Z,53.87
2019-02-21T04:55:33.108Z,56.57
2019-02-21T04:58:01.543Z,54.60
2019-02-21T05:00:49.336Z,64.87
2019-02-21T05:03:17.820Z,60.27
2019-02-21T05:05:46.260Z,61.60
2019-02-21T05:08:14.799Z,57.93
2019-02-21T05:10:43.207Z,54.10
2019-02-21T05:13:11.652Z,58.30
2019-02-21T05:15:40.075Z,64.10
2019-02-21T05:18:08.499Z,53.27
2019-02-21T05:20:56.299Z,56.40
2019-02-21T05:23:24.727Z,68.57
2019-02-21T05:25:53.204Z,55.70
2019-02-21T05:28:31.454Z,69.80
2019-02-21T05:31:07.432Z,60.83
2019-02-21T05:33:37.591Z,70.80
2019-02-21T05:36:10.663Z,63.70
2019-02-21T05:38:43.450Z,68.23
2019-02-21T05:41:38.615Z,62.20
2019-02-21T05:44:11.651Z,61.80
2019-02-21T05:46:41.743Z,61.57
2019-02-21T05:49:30.050Z,56.60
2019-02-21T05:52:12.532Z,66.90
2019-02-21T05:54:57.627Z,62.00
2019-02-21T06:00:19.203Z,57.67
2019-02-21T06:03:05.884Z,68.53
2019-02-21T06:06:04.307Z,59.73
2019-02-21T06:08:52.452Z,63.10
2019-02-21T06:11:38.631Z,57.47
2019-02-21T06:14:11.500Z,60.53
2019-02-21T06:16:41.572Z,58.87
2019-02-21T06:19:39.791Z,62.67
2019-02-21T06:22:12.535Z,53.20
2019-02-21T06:25:02.028Z,66.13
2019-02-21T06:30:17.035Z,63.67
2019-02-21T06:32:45.499Z,63.00
2019-02-21T06:35:33.336Z,61.43
2019-02-21T06:38:01.779Z,52.83
2019-02-21T06:40:30.248Z,52.00
2019-02-21T06:42:58.671Z,64.10
2019-02-21T06:45:27.269Z,62.90
2019-02-21T06:50:44.512Z,53.07
2019-02-21T06:53:32.348Z,69.80
2019-02-21T06:56:00.821Z,60.27
2019-02-21T06:58:29.268Z,60.40
2019-02-21T07:00:57.704Z,57.60
2019-02-21T07:03:26.166Z,62.10
2019-02-21T07:06:14.030Z,71.60
2019-02-21T07:08:42.439Z,62.87
2019-02-21T07:11:10.879Z,65.70
2019-02-21T07:13:58.669Z,59.70
2019-02-21T07:16:27.094Z,64.87
2019-02-21T07:18:55.519Z,68.93
2019-02-21T07:21:24.027Z,66.73
2019-02-21T07:23:52.477Z,63.13
2019-02-21T07:26:20.905Z,70.93
2019-02-21T07:28:49.466Z,63.03
2019-02-21T07:31:37.248Z,55.10
2019-02-21T07:34:07.041Z,71.07
2019-02-21T07:36:35.730Z,66.07
2019-02-21T07:39:16.824Z,67.07
2019-02-21T07:41:35.549Z,67.70
2019-02-21T07:44:11.740Z,65.27
2019-02-21T07:46:34.261Z,79.73
2019-02-21T07:49:02.720Z,72.73
2019-02-21T07:51:31.162Z,73.13
2019-02-21T07:53:59.603Z,72.40
2019-02-21T07:56:28.060Z,74.40
2019-02-21T07:58:57.672Z,75.30
2019-02-21T08:01:26.367Z,81.77
2019-02-21T08:03:54.812Z,82.40
2019-02-21T08:06:42.564Z,65.73
2019-02-21T08:09:22.847Z,80.30
2019-02-21T08:11:51.334Z,86.60
2019-02-21T08:14:20.658Z,74.50
2019-02-21T08:16:49.105Z,97.37
2019-02-21T08:19:17.519Z,78.30
2019-02-21T08:21:46.007Z,76.07
2019-02-21T08:24:14.592Z,77.60
2019-02-21T08:26:43.020Z,73.77
2019-02-21T08:29:11.476Z,82.33
2019-02-21T08:31:39.901Z,70.27
2019-02-21T08:34:09.967Z,76.40
2019-02-21T08:36:38.419Z,75.50
2019-02-21T08:39:08.825Z,77.63
2019-02-21T08:41:37.321Z,78.10
2019-02-21T08:44:25.105Z,77.73
2019-02-21T08:47:12.865Z,81.10
2019-02-21T08:49:41.294Z,72.33
2019-02-21T08:52:09.829Z,78.30
2019-02-21T08:54:38.344Z,80.60
2019-02-21T08:57:26.109Z,100.27
2019-02-21T08:59:54.559Z,72.97
2019-02-21T09:02:22.982Z,81.17
2019-02-21T09:04:51.485Z,76.20
2019-02-21T09:07:19.900Z,76.70
2019-02-21T09:09:48.347Z,72.73
2019-02-21T09:12:16.769Z,74.17
2019-02-21T09:14:45.215Z,81.90
2019-02-21T09:17:13.672Z,76.23
2019-02-21T09:20:01.454Z,82.80
2019-02-21T09:22:49.261Z,75.70
2019-02-21T09:25:29.927Z,82.03
2019-02-21T09:28:10.692Z,66.17
2019-02-21T09:30:51.691Z,70.07
2019-02-21T09:33:21.319Z,81.30
2019-02-21T09:35:50.261Z,78.93
2019-02-21T09:38:18.679Z,54.57
2019-02-21T09:40:47.118Z,55.00
2019-02-21T09:43:15.574Z,71.23
2019-02-21T09:45:44.010Z,74.17
2019-02-21T09:48:25.150Z,74.17
2019-02-21T09:50:53.585Z,64.03
2019-02-21T09:53:22.035Z,68.23
2019-02-21T09:56:09.818Z,83.13
2019-02-21T09:58:38.274Z,72.93
2019-02-21T10:01:06.802Z,76.23
2019-02-21T10:03:35.412Z,65.40
2019-02-21T10:06:03.990Z,63.87
2019-02-21T10:08:32.416Z,61.93
2019-02-21T10:11:01.034Z,73.60
2019-02-21T10:13:29.703Z,70.07
2019-02-21T10:15:58.140Z,59.13
2019-02-21T10:18:26.583Z,67.60
2019-02-21T10:20:55.034Z,66.63
2019-02-21T10:23:24.346Z,65.40
2019-02-21T10:25:52.898Z,58.53
2019-02-21T10:28:40.668Z,66.73
2019-02-21T10:31:09.199Z,72.43
2019-02-21T10:33:46.601Z,66.30
2019-02-21T10:36:07.807Z,53.57
2019-02-21T10:38:36.239Z,68.27
2019-02-21T10:41:04.731Z,70.40
2019-02-21T10:43:33.183Z,62.77
2019-02-21T10:46:01.704Z,70.43
2019-02-21T10:48:30.223Z,49.83
2019-02-21T10:50:58.669Z,67.57
2019-02-21T10:53:27.111Z,62.67
2019-02-21T10:55:55.539Z,69.00
2019-02-21T10:58:43.315Z,54.37
2019-02-21T11:01:31.075Z,65.63
2019-02-21T11:03:59.531Z,37.87
2019-02-21T11:09:23.335Z,62.40
2019-02-21T11:11:51.778Z,53.57
2019-02-21T11:14:20.295Z,50.50
2019-02-21T11:16:48.719Z,42.93
2019-02-21T11:19:17.236Z,42.13
2019-02-21T11:21:45.667Z,46.07
2019-02-21T11:24:33.470Z,37.33
2019-02-21T11:27:01.884Z,36.97
2019-02-21T11:29:30.348Z,44.43
2019-02-21T11:31:58.807Z,46.77
2019-02-21T11:34:27.263Z,41.40
2019-02-21T11:36:55.766Z,46.17
2019-02-21T11:39:24.325Z,33.50
2019-02-21T11:41:52.772Z,34.77
2019-02-21T11:44:21.200Z,32.07
2019-02-21T11:47:08.997Z,28.07
2019-02-21T11:49:37.447Z,35.10
2019-02-21T11:52:10.125Z,38.93
2019-02-21T11:54:36.084Z,36.50
2019-02-21T11:57:23.881Z,34.27
2019-02-21T11:59:52.328Z,36.03
2019-02-21T12:02:20.755Z,34.60
2019-02-21T12:04:49.207Z,32.93
2019-02-21T12:07:36.987Z,37.03
2019-02-21T12:10:08.684Z,32.70
2019-02-21T12:12:37.134Z,30.63
2019-02-21T12:15:08.638Z,33.60
2019-02-21T12:17:37.249Z,31.13
2019-02-21T12:20:11.835Z,31.07
2019-02-21T12:22:59.680Z,31.77
2019-02-21T12:25:47.463Z,32.13
2019-02-21T12:28:15.895Z,42.50
2019-02-21T12:31:03.683Z,39.33
2019-02-21T12:33:32.131Z,25.97
2019-02-21T12:36:00.672Z,38.77
2019-02-21T12:38:29.214Z,41.13
2019-02-21T12:40:57.643Z,29.67
2019-02-21T12:43:26.093Z,37.93
2019-02-21T12:45:57.599Z,32.73
2019-02-21T12:48:45.392Z,35.03
2019-02-21T12:51:13.822Z,42.03
2019-02-21T12:54:01.600Z,37.80
2019-02-21T12:56:30.043Z,37.83
2019-02-21T12:58:58.485Z,44.43
2019-02-21T13:01:26.942Z,41.00
2019-02-21T13:03:55.379Z,58.67
2019-02-21T13:06:43.168Z,53.97
2019-02-21T13:09:11.595Z,41.57
2019-02-21T13:11:40.048Z,43.80
2019-02-21T13:14:08.467Z,42.53
2019-02-21T13:16:36.920Z,42.77
2019-02-21T13:19:05.356Z,38.90
2019-02-21T13:21:33.788Z,42.67
2019-02-21T13:24:02.250Z,37.83
2019-02-21T13:26:30.708Z,45.40
2019-02-21T13:28:59.136Z,44.93
2019-02-21T13:31:46.930Z,47.03
2019-02-21T13:34:15.430Z,52.53
2019-02-21T13:36:43.884Z,53.20
2019-02-21T13:39:12.327Z,47.53
2019-02-21T13:41:40.753Z,49.20
2019-02-21T13:44:09.195Z,35.87
2019-02-21T13:46:40.842Z,42.10
2019-02-21T13:49:07.799Z,46.53
2019-02-21T13:51:36.244Z,47.60
2019-02-21T13:54:04.671Z,52.10
2019-02-21T13:56:33.123Z,43.03
2019-02-21T13:59:20.929Z,51.63
2019-02-21T14:01:49.355Z,43.03
2019-02-21T14:04:17.775Z,52.60
2019-02-21T14:07:05.564Z,51.63
2019-02-21T14:09:53.359Z,55.43
2019-02-21T14:12:21.788Z,33.07
2019-02-21T14:14:50.303Z,31.80
2019-02-21T14:17:18.727Z,35.90
2019-02-21T14:20:07.612Z,41.97
2019-02-21T14:22:36.115Z,28.83
2019-02-21T14:25:07.174Z,37.83
2019-02-21T14:27:35.599Z,39.53
2019-02-21T14:30:09.834Z,39.93
2019-02-21T14:32:50.163Z,24.93
2019-02-21T14:35:18.763Z,39.80
2019-02-21T14:37:47.295Z,48.23
2019-02-21T14:40:16.676Z,38.83
2019-02-21T14:42:45.119Z,29.27
2019-02-21T14:45:21.858Z,34.83
2019-02-21T14:47:50.316Z,43.93
2019-02-21T14:50:18.765Z,30.40
2019-02-21T14:52:47.272Z,45.27
2019-02-21T14:55:35.060Z,43.17
2019-02-21T14:58:03.515Z,52.70
2019-02-21T15:00:32.009Z,43.67
2019-02-21T15:03:00.446Z,33.93
2019-02-21T15:05:30.167Z,53.83
2019-02-21T15:07:58.623Z,40.80
2019-02-21T15:10:27.048Z,36.90
2019-02-21T15:12:55.503Z,26.93
2019-02-21T15:15:27.558Z,30.37
2019-02-21T15:18:15.347Z,21.83
2019-02-21T15:20:43.771Z,25.27
2019-02-21T15:23:31.563Z,26.17
2019-02-21T15:26:00.010Z,30.47
2019-02-21T15:28:28.479Z,28.00
2019-02-21T15:30:56.960Z,26.03
2019-02-21T15:33:25.418Z,21.17
2019-02-21T15:35:53.903Z,23.60
2019-02-21T15:38:22.352Z,27.83
2019-02-21T15:40:50.856Z,17.77
2019-02-21T15:43:38.636Z,23.33
2019-02-21T15:46:07.486Z,26.23
2019-02-21T15:48:36.268Z,25.93
2019-02-21T15:51:04.695Z,26.97
2019-02-21T15:53:33.155Z,19.50
2019-02-21T15:56:20.959Z,24.37
2019-02-21T15:58:49.460Z,25.10
2019-02-21T16:01:17.889Z,23.10
2019-02-21T16:04:05.679Z,27.20
2019-02-21T16:06:34.109Z,27.17
2019-02-21T16:09:21.998Z,27.93
2019-02-21T16:11:50.420Z,23.90
2019-02-21T16:14:18.916Z,22.60
2019-02-21T16:16:47.817Z,27.07
2019-02-21T16:19:16.268Z,18.43
2019-02-21T16:21:44.762Z,16.07
2019-02-21T16:24:13.237Z,23.70
2019-02-21T16:26:41.671Z,31.00
2019-02-21T16:29:29.484Z,20.40
2019-02-21T16:31:57.901Z,28.13
2019-02-21T16:34:26.327Z,25.93
2019-02-21T16:37:02.176Z,22.50
2019-02-21T16:39:24.959Z,17.97
2019-02-21T16:41:53.484Z,30.30
2019-02-21T16:44:22.004Z,25.97
2019-02-21T16:46:50.462Z,33.70
2019-02-21T16:49:18.915Z,23.10
2019-02-21T16:52:06.714Z,20.03
2019-02-21T16:54:35.231Z,23.03
2019-02-21T16:57:23.024Z,26.57
2019-02-21T17:00:03.958Z,25.40
2019-02-21T17:02:32.413Z,30.43
2019-02-21T17:05:00.917Z,22.07
2019-02-21T17:07:48.704Z,27.30
2019-02-21T17:10:36.492Z,22.50
2019-02-21T17:13:04.915Z,28.60
2019-02-21T17:18:38.362Z,32.40
2019-02-21T17:21:21.070Z,45.53
2019-02-21T17:23:49.716Z,25.27
2019-02-21T17:26:18.236Z,36.20
2019-02-21T17:28:46.751Z,39.13
2019-02-21T17:31:15.185Z,42.33
2019-02-21T17:33:43.639Z,38.60
2019-02-21T17:39:21.205Z,32.23
2019-02-21T17:42:02.642Z,33.40
2019-02-21T17:44:31.916Z,45.47
2019-02-21T17:47:00.635Z,53.03
2019-02-21T17:49:29.079Z,55.50
2019-02-21T17:51:57.541Z,42.77
2019-02-21T17:54:27.623Z,45.03
2019-02-21T17:57:08.130Z,42.80
2019-02-21T17:59:36.581Z,42.63
2019-02-21T18:02:24.359Z,44.90
2019-02-21T18:05:00.040Z,38.27
2019-02-21T18:07:36.028Z,40.80
2019-02-21T18:09:58.664Z,44.37
2019-02-21T18:12:27.112Z,46.03
2019-02-21T18:14:55.636Z,58.50
2019-02-21T18:17:26.408Z,52.30
2019-02-21T18:19:54.243Z,53.43
2019-02-21T18:22:22.782Z,47.53
2019-02-21T18:25:11.919Z,75.73
2019-02-21T18:27:40.369Z,61.10
2019-02-21T18:30:17.007Z,59.17
2019-02-21T18:32:45.791Z,65.20
2019-02-21T18:35:33.587Z,65.77
2019-02-21T18:38:02.044Z,78.93
2019-02-21T18:40:30.551Z,77.77
2019-02-21T18:43:00.701Z,86.53
2019-02-21T18:45:48.463Z,67.30
2019-02-21T18:48:20.716Z,57.33
2019-02-21T18:51:08.519Z,75.53
2019-02-21T18:53:36.945Z,77.83
2019-02-21T18:56:05.540Z,69.53
2019-02-21T18:58:33.980Z,73.07
2019-02-21T19:01:02.575Z,77.13
2019-02-21T19:03:50.334Z,89.87
2019-02-21T19:06:31.179Z,54.70
2019-02-21T19:08:59.607Z,79.37
2019-02-21T19:11:47.387Z,67.73
2019-02-21T19:14:35.153Z,59.70
2019-02-21T19:17:15.396Z,63.53
2019-02-21T19:19:43.907Z,57.13
2019-02-21T19:22:12.403Z,64.93
2019-02-21T19:24:40.840Z,77.83
2019-02-21T19:27:09.268Z,77.67
2019-02-21T19:29:37.719Z,93.90
2019-02-21T19:32:25.479Z,77.87
2019-02-21T19:34:54.058Z,73.63
2019-02-21T19:37:22.483Z,77.83
2019-02-21T19:39:50.985Z,45.07
2019-02-21T19:42:19.440Z,65.30
2019-02-21T19:44:47.889Z,67.93
2019-02-21T19:47:16.336Z,70.40
2019-02-21T19:49:44.768Z,103.93
2019-02-21T19:52:13.494Z,92.60
2019-02-21T19:54:41.990Z,54.70
2019-02-21T19:57:10.446Z,73.50
2019-02-21T19:59:42.050Z,65.40
2019-02-21T20:02:10.615Z,80.00
2019-02-21T20:04:58.474Z,92.37
2019-02-21T20:07:27.182Z,64.70
2019-02-21T20:09:56.236Z,81.37
2019-02-21T20:12:24.974Z,75.30
2019-02-21T20:14:55.560Z,86.50
2019-02-21T20:17:24.137Z,92.50
2019-02-21T20:19:52.851Z,94.13
2019-02-21T20:22:21.541Z,102.73
2019-02-21T20:24:51.675Z,88.40
2019-02-21T20:27:20.399Z,90.83
2019-02-21T20:29:48.912Z,95.80
2019-02-21T20:32:17.630Z,97.07
2019-02-21T20:34:46.272Z,84.67
2019-02-21T20:37:16.191Z,78.20
2019-02-21T20:39:45.597Z,70.83
2019-02-21T20:42:19.273Z,108.97
2019-02-21T20:44:47.799Z,86.97
2019-02-21T20:47:16.349Z,101.93
2019-02-21T20:49:44.872Z,99.10
2019-02-21T20:52:14.094Z,99.57
2019-02-21T20:54:42.807Z,105.60
2019-02-21T20:57:11.676Z,106.50
2019-02-21T20:59:59.540Z,92.30
2019-02-21T21:02:28.083Z,87.00
2019-02-21T21:04:56.618Z,87.20
2019-02-21T21:07:25.560Z,89.67
2019-02-21T21:10:15.211Z,93.33
2019-02-21T21:12:43.791Z,96.10
2019-02-21T21:15:15.460Z,104.80
2019-02-21T21:17:56.479Z,74.50
2019-02-21T21:20:37.240Z,83.00
2019-02-21T21:23:06.125Z,87.80
2019-02-21T21:25:53.915Z,101.70
2019-02-21T21:28:22.355Z,107.03
2019-02-21T21:31:10.143Z,88.70
2019-02-21T21:33:38.577Z,98.87
2019-02-21T21:36:09.980Z,103.60
2019-02-21T21:38:38.527Z,107.77
2019-02-21T21:41:14.372Z,89.90
2019-02-21T21:43:42.807Z,120.83
2019-02-21T21:46:11.255Z,131.50
2019-02-21T21:48:39.710Z,108.87
2019-02-21T21:51:27.536Z,120.27
2019-02-21T21:53:55.964Z,115.53
2019-02-21T21:56:24.393Z,116.63
2019-02-21T21:58:52.838Z,113.60
2019-02-21T22:01:24.307Z,102.63
2019-02-21T22:03:52.770Z,104.57
2019-02-21T22:06:40.587Z,112.43
2019-02-21T22:09:28.384Z,97.30
2019-02-21T22:12:16.168Z,126.20
2019-02-21T22:15:05.131Z,107.90
2019-02-21T22:17:33.587Z,148.43
2019-02-21T22:20:21.355Z,84.80
2019-02-21T22:22:49.811Z,119.50
2019-02-21T22:25:37.612Z,74.47
2019-02-21T22:28:06.071Z,130.17
2019-02-21T22:30:34.763Z,192.07
2019-02-21T22:33:03.227Z,192.93
2019-02-21T22:35:31.703Z,149.87
2019-02-21T22:38:00.155Z,132.23
2019-02-21T22:40:28.593Z,123.23
2019-02-21T22:42:57.203Z,154.23
2019-02-21T22:45:44.975Z,185.10
2019-02-21T22:48:13.431Z,165.27
2019-02-21T22:50:41.860Z,136.33
2019-02-21T22:53:10.385Z,151.20
2019-02-21T22:55:38.847Z,181.23
2019-02-21T22:58:07.297Z,138.37
2019-02-21T23:00:49.149Z,147.60
2019-02-21T23:03:17.725Z,152.00
2019-02-21T23:06:23.812Z,184.17
2019-02-21T23:09:05.524Z,131.53
2019-02-21T23:11:46.493Z,168.03
2019-02-21T23:14:15.004Z,184.47
2019-02-21T23:16:43.562Z,145.63
2019-02-21T23:19:12.024Z,120.13
2019-02-21T23:21:59.786Z,160.83
2019-02-21T23:24:40.924Z,163.20
2019-02-21T23:27:21.462Z,182.27
2019-02-21T23:29:49.945Z,128.53
2019-02-21T23:32:18.391Z,147.70
2019-02-21T23:35:06.624Z,175.93
2019-02-21T23:37:47.223Z,190.67
2019-02-21T23:40:15.659Z,216.20
2019-02-21T23:42:44.119Z,185.37
2019-02-21T23:45:12.607Z,160.53
2019-02-21T23:47:49.443Z,180.83
2019-02-21T23:50:30.571Z,171.10
2019-02-21T23:52:58.995Z,143.57
2019-02-21T23:55:46.783Z,173.07
2019-02-21T23:58:27.429Z,194.13
